GLW Airport (Glasgow Muni) Information

FAA: GLW - ICAO: KGLW

GLW Airport Location

State Kentucky
County Barren
City Glasgow
GLW Airport is 2 miles northwest of Glasgow, KY.
Latitude 37-01-54.4000N
Longitude 085-57-13.5000W
Elevation 716ft

KGLW Airport METARs

METAR KGLW 301815Z AUTO 26005KT 10SM CLR 14/04 A3011 RMK AO2 T01430040
Altimeter 30.11"
Temperature 14.3°C (57.7°F)
Wind 260° at 5KT
Clouds Skies are clear.
Visibility 10.0mi
Time observed: 2021-11-30T18:15:00Z

GLW Airport Details

Status Operational
Activation August 1962
Ownership Public
Usage Public
Chart ST LOUIS
ATC on-site No
Beacon schedule sunset-sunrise
Beacon color clear green

GLW Airport Contacts

Owner GLASGOW AIRPORT BOARD
Owner address 390 AIRPORT ROAD, GLASGOW, KY 42141
Owner phone 270-678-3272
Manager JIM CLINE
Manager address 1695 PEA RIDGE ROAD, FRANKFORT, KY 40691
Manager phone 502-395-0356

GLW Airport (Glasgow Muni) Radio Frequencies

GLW (Airport) Radio Frequencies

UNICOM 122.8
Common traffic advisory frequency (CTAF) 122.8